Time;durP1;ratioP1;P1;durP2;ratioP2;P2;SDS_P1;SDS_P2;PMS_P1;PMS_P2;Temp;Humidity;BMP_temperature;BMP_pressure;BME280_temperature;BME280_humidity;BME280_pressure;Samples;Min_cycle;Max_cycle;Signal;HPM_P1;HPM_P2
2023/05/14 00:01:54;;;;;;;3.50;3.20;;;;;;;12.34;64.93;98989.25;4938524;28;41292;-80
2023/05/14 00:04:22;;;;;;;3.80;3.50;;;;;;;12.26;65.08;98973.81;4957541;28;40052;-79
2023/05/14 00:06:50;;;;;;;3.70;3.40;;;;;;;12.30;64.99;98979.78;4975987;28;42572;-79
2023/05/14 00:09:17;;;;;;;3.07;2.87;;;;;;;12.27;64.95;98983.47;4942073;28;41892;-80
2023/05/14 00:11:45;;;;;;;3.47;3.17;;;;;;;12.24;65.48;98983.69;4958515;28;40946;-80
2023/05/14 00:14:14;;;;;;;2.83;2.63;;;;;;;12.21;65.44;98978.59;4959120;28;40950;-79
2023/05/14 00:16:41;;;;;;;4.23;3.83;;;;;;;12.12;65.96;98964.13;4959537;28;40729;-80
2023/05/14 00:19:09;;;;;;;3.40;3.10;;;;;;;12.15;66.02;98971.03;4942888;28;42712;-79
2023/05/14 00:21:36;;;;;;;3.80;3.50;;;;;;;12.14;66.37;98964.88;4942909;28;42677;-80
2023/05/14 00:24:05;;;;;;;3.37;3.17;;;;;;;12.11;66.53;98958.94;4943463;28;41307;-79
2023/05/14 00:26:32;;;;;;;3.47;3.17;;;;;;;11.97;66.29;98948.38;4943381;28;40998;-80
2023/05/14 00:29:00;;;;;;;4.17;3.77;;;;;;;12.06;66.30;98975.16;4958896;28;41274;-79
2023/05/14 00:31:29;;;;;;;3.53;3.23;;;;;;;12.04;66.17;98973.56;4959359;28;42676;-79
2023/05/14 00:33:57;;;;;;;3.93;3.60;;;;;;;11.99;66.18;98967.72;4943158;28;39464;-80
2023/05/14 00:36:25;;;;;;;3.40;3.10;;;;;;;11.84;66.13;98949.19;4943350;28;40568;-79
2023/05/14 00:38:52;;;;;;;3.87;3.47;;;;;;;11.90;66.15;98969.16;4958848;28;42846;-79
2023/05/14 00:41:20;;;;;;;3.63;3.33;;;;;;;11.86;66.31;98957.91;4943329;28;42661;-78
2023/05/14 00:43:48;;;;;;;3.67;3.37;;;;;;;11.80;66.70;98958.31;4941067;28;40128;-79
2023/05/14 00:46:16;;;;;;;3.63;3.33;;;;;;;11.80;66.94;98968.91;4941726;28;40691;-81
2023/05/14 00:48:46;;;;;;;3.83;3.47;;;;;;;11.80;67.15;98968.91;4941625;28;41840;-80
2023/05/14 00:51:14;;;;;;;3.90;3.60;;;;;;;11.75;67.15;98965.69;4958053;28;41186;-80
2023/05/14 00:53:41;;;;;;;3.43;3.13;;;;;;;11.73;67.06;98970.25;4957620;28;40966;-79
2023/05/14 00:56:09;;;;;;;3.33;3.03;;;;;;;11.56;66.71;98943.09;4941765;28;40838;-79
2023/05/14 00:58:37;;;;;;;3.80;3.50;;;;;;;11.62;67.02;98959.47;4957243;28;43114;-79
2023/05/14 01:01:04;;;;;;;3.90;3.60;;;;;;;11.46;66.89;98935.75;4941486;28;42311;-79
2023/05/14 01:03:32;;;;;;;4.13;3.77;;;;;;;11.56;66.85;98965.19;4941267;28;38841;-80
2023/05/14 01:06:25;;;;;;;3.60;3.30;;;;;;;11.46;67.18;98958.78;4941534;28;41781;-79
2023/05/14 01:09:03;;;;;;;3.03;2.83;;;;;;;11.47;67.02;98965.78;4941201;28;42076;-79
2023/05/14 01:11:36;;;;;;;3.50;3.20;;;;;;;11.39;66.86;98962.75;4941467;28;41301;-78
2023/05/14 01:14:13;;;;;;;4.13;3.70;;;;;;;11.30;67.36;98948.28;4942155;28;40326;-79
2023/05/14 01:16:43;;;;;;;3.37;3.07;;;;;;;11.25;67.42;98938.94;4955682;28;41660;-79
2023/05/14 01:19:21;;;;;;;4.27;3.97;;;;;;;11.29;67.62;98953.69;4941989;28;41634;-78
2023/05/14 01:25:51;;;;;;;4.13;3.80;;;;;;;11.09;70.01;98929.31;4975496;28;40265;-80
2023/05/14 01:28:24;;;;;;;4.80;4.00;;;;;;;11.17;70.67;98942.06;4958489;28;42688;-79
2023/05/14 01:30:57;;;;;;;4.07;3.27;;;;;;;11.07;70.17;98917.94;4941719;28;43174;-79
2023/05/14 01:33:27;;;;;;;3.83;3.53;;;;;;;11.16;70.26;98941.22;4955123;28;42203;-79
2023/05/14 01:35:55;;;;;;;3.90;3.50;;;;;;;11.15;69.98;98943.97;4957970;28;40012;-78
2023/05/14 01:38:23;;;;;;;4.20;3.80;;;;;;;11.12;70.15;98928.28;4941622;28;43470;-79
2023/05/14 01:40:53;;;;;;;4.43;4.03;;;;;;;11.13;70.12;98936.09;4956930;28;43528;-80
2023/05/14 01:43:21;;;;;;;3.90;3.60;;;;;;;11.13;70.06;98946.69;4957026;28;42271;-78
2023/05/14 01:45:48;;;;;;;3.63;3.33;;;;;;;11.09;69.62;98939.91;4940726;28;38873;-78
2023/05/14 01:48:16;;;;;;;3.97;3.57;;;;;;;11.08;69.65;98943.50;4956988;28;41770;-77
2023/05/14 01:50:44;;;;;;;3.40;3.10;;;;;;;11.06;69.67;98939.25;4956574;28;43968;-79
2023/05/14 01:53:11;;;;;;;4.00;3.70;;;;;;;11.02;69.79;98935.94;4973825;28;43200;-78
2023/05/14 01:55:39;;;;;;;4.33;3.93;;;;;;;11.01;70.64;98939.53;4956339;28;40070;-77
2023/05/14 01:58:07;;;;;;;4.80;4.40;;;;;;;10.98;70.87;98929.13;4940509;28;40618;-77
2023/05/14 02:00:35;;;;;;;4.57;3.90;;;;;;;10.87;71.26;98918.38;4939772;28;42062;-78
2023/05/14 02:03:02;;;;;;;4.90;4.40;;;;;;;10.95;71.02;98928.47;4940245;28;42307;-79
2023/05/14 02:05:30;;;;;;;4.23;3.83;;;;;;;10.95;71.15;98937.28;4940382;28;39744;-78
2023/05/14 02:07:57;;;;;;;4.73;3.90;;;;;;;10.88;71.08;98919.22;4940658;28;40744;-77
2023/05/14 02:10:25;;;;;;;3.97;3.67;;;;;;;10.97;71.10;98930.09;4939974;28;43142;-78
2023/05/14 02:12:52;;;;;;;3.83;3.53;;;;;;;10.99;70.93;98925.53;4940320;28;41252;-79
2023/05/14 02:15:21;;;;;;;4.80;4.10;;;;;;;10.97;71.39;98929.22;4957414;28;38775;-78
2023/05/14 02:17:49;;;;;;;4.07;3.60;;;;;;;10.89;72.32;98911.16;4941194;28;41700;-78
2023/05/14 02:20:17;;;;;;;4.70;4.30;;;;;;;10.86;72.62;98908.72;4974068;28;42858;-77
2023/05/14 02:22:45;;;;;;;4.10;3.70;;;;;;;10.96;72.50;98927.53;4957092;28;43206;-79
2023/05/14 02:25:12;;;;;;;3.83;3.53;;;;;;;10.94;72.38;98924.97;4940557;28;40003;-79
2023/05/14 02:27:40;;;;;;;4.07;3.77;;;;;;;10.92;72.30;98932.16;4956663;28;41888;-79
2023/05/14 02:30:08;;;;;;;3.80;3.50;;;;;;;10.90;72.21;98928.75;4940581;28;41539;-78
2023/05/14 02:32:37;;;;;;;4.07;3.77;;;;;;;10.77;72.28;98912.78;4956910;28;43258;-77
2023/05/14 02:35:06;;;;;;;3.90;3.50;;;;;;;10.85;72.33;98924.69;4956814;28;41007;-78
2023/05/14 02:37:34;;;;;;;5.00;4.60;;;;;;;10.48;73.53;98868.72;4956629;28;40513;-77
2023/05/14 02:40:03;;;;;;;4.80;4.40;;;;;;;10.81;73.65;98924.03;4940621;28;41767;-77
2023/05/14 02:42:31;;;;;;;4.70;4.30;;;;;;;10.72;75.11;98906.06;4955913;28;43256;-79
2023/05/14 02:44:59;;;;;;;5.80;4.60;;;;;;;10.81;75.04;98924.03;4939286;28;41153;-79
2023/05/14 02:47:27;;;;;;;6.63;4.57;;;;;;;10.83;76.63;98927.44;4939619;28;40841;-79
2023/05/14 02:49:56;;;;;;;6.10;5.00;;;;;;;10.85;76.62;98932.66;4939523;28;42983;-77
2023/05/14 02:52:24;;;;;;;5.47;4.97;;;;;;;10.84;77.48;98921.19;4939389;28;41110;-79
2023/05/14 02:54:51;;;;;;;6.03;5.03;;;;;;;10.84;77.42;98928.31;4955549;28;42186;-80
2023/05/14 02:57:19;;;;;;;5.00;4.57;;;;;;;10.82;77.19;98924.88;4939589;28;40954;-78
2023/05/14 02:59:47;;;;;;;6.23;4.07;;;;;;;10.81;76.92;98924.03;4939060;28;42683;-79
2023/05/14 03:02:14;;;;;;;6.17;5.57;;;;;;;10.78;77.04;98925.06;4939359;28;42419;-77
2023/05/14 03:04:42;;;;;;;6.33;5.13;;;;;;;10.77;76.82;98928.66;4938944;28;39102;-79
2023/05/14 03:07:12;;;;;;;5.07;4.57;;;;;;;10.78;77.42;98933.00;4939498;28;40543;-78
2023/05/14 03:09:39;;;;;;;4.10;3.77;;;;;;;10.80;77.15;98927.63;4972441;28;42706;-78
2023/05/14 03:12:08;;;;;;;4.77;4.37;;;;;;;10.86;76.74;98927.25;4955391;28;43175;-78
2023/05/14 03:14:36;;;;;;;4.03;3.73;;;;;;;10.89;76.17;98920.91;4940301;28;38875;-78
2023/05/14 03:17:03;;;;;;;4.33;4.03;;;;;;;11.06;76.68;98933.94;4940038;28;40761;-78
2023/05/14 03:19:31;;;;;;;6.37;3.70;;;;;;;11.15;76.28;98934.22;4972957;28;43684;-78
2023/05/14 03:21:59;;;;;;;5.57;5.07;;;;;;;11.26;76.47;98925.56;4940680;28;42377;-78
2023/05/14 03:24:28;;;;;;;4.30;3.97;;;;;;;11.37;75.88;98932.84;4956302;28;39977;-78
2023/05/14 03:26:56;;;;;;;4.07;3.67;;;;;;;11.46;75.42;98932.25;4956612;28;42915;-79
2023/05/14 03:29:23;;;;;;;4.67;4.03;;;;;;;11.49;75.13;98910.84;4940252;28;42893;-79
2023/05/14 03:31:51;;;;;;;4.40;4.03;;;;;;;11.64;74.99;98930.19;4956501;28;42997;-79
2023/05/14 03:38:45;;;;;;;4.30;3.53;;;;;;;11.78;74.43;98932.81;4972517;28;43209;-79
2023/05/14 03:41:16;;;;;;;3.87;3.57;;;;;;;11.85;74.27;98921.72;4939851;28;41833;-79
2023/05/14 03:43:44;;;;;;;3.83;3.43;;;;;;;11.92;74.08;98923.94;4938856;28;41619;-77
2023/05/14 03:46:11;;;;;;;3.97;3.63;;;;;;;11.98;74.12;98928.84;4938944;28;40049;-79
2023/05/14 03:48:39;;;;;;;5.07;4.17;;;;;;;12.02;74.74;98931.19;4955033;28;42762;-78
2023/05/14 03:51:06;;;;;;;4.27;3.87;;;;;;;12.02;74.14;98920.56;4955268;28;43519;-79
2023/05/14 03:53:36;;;;;;;4.47;4.07;;;;;;;12.12;74.06;98928.75;4938581;28;41444;-78
2023/05/14 03:56:04;;;;;;;3.90;3.50;;;;;;;12.14;73.93;98929.50;4939047;28;39037;-79
2023/05/14 03:58:33;;;;;;;4.47;3.93;;;;;;;12.07;73.81;98907.84;4954860;28;41837;-79
2023/05/14 04:01:00;;;;;;;3.97;3.67;;;;;;;12.24;73.42;98926.13;4972151;28;43913;-78
2023/05/14 04:03:28;;;;;;;3.60;3.30;;;;;;;12.23;73.16;98921.78;4954708;28;42251;-80
2023/05/14 04:05:55;;;;;;;4.07;3.73;;;;;;;12.38;73.31;98929.63;4938907;28;39105;-79
2023/05/14 04:08:23;;;;;;;4.47;4.07;;;;;;;12.41;74.09;98930.28;4954414;28;41905;-78
2023/05/14 04:10:50;;;;;;;4.53;4.13;;;;;;;12.45;74.13;98930.94;4938378;28;43150;-79
2023/05/14 04:13:18;;;;;;;4.57;4.17;;;;;;;12.48;74.25;98928.06;4939126;28;41315;-78
2023/05/14 04:15:47;;;;;;;4.80;4.40;;;;;;;12.47;74.06;98921.91;4939512;28;38829;-79
2023/05/14 04:18:14;;;;;;;3.73;3.43;;;;;;;12.54;74.50;98928.47;4955667;28;42499;-78
2023/05/14 04:20:42;;;;;;;4.90;4.50;;;;;;;12.58;75.19;98922.00;4939439;28;42550;-78
2023/05/14 04:23:09;;;;;;;4.70;4.30;;;;;;;12.63;74.64;98926.97;4955531;28;42238;-78
2023/05/14 04:25:37;;;;;;;4.97;4.57;;;;;;;12.67;74.73;98923.16;4972671;28;40107;-79
2023/05/14 04:28:04;;;;;;;4.60;4.20;;;;;;;12.73;74.63;98927.22;4955305;28;40666;-79
2023/05/14 04:30:32;;;;;;;4.63;4.23;;;;;;;12.76;74.40;98924.31;4955081;28;43944;-79
2023/05/14 04:33:01;;;;;;;4.87;4.43;;;;;;;12.81;74.58;98930.19;4939054;28;41401;-79
2023/05/14 04:35:29;;;;;;;4.17;3.77;;;;;;;12.90;74.30;98926.84;4955331;28;41012;-78
2023/05/14 04:37:56;;;;;;;4.00;3.70;;;;;;;12.97;73.93;98917.50;4972752;28;41891;-78
2023/05/14 04:40:24;;;;;;;4.47;4.07;;;;;;;13.05;74.16;98912.47;4939183;28;42870;-79
2023/05/14 04:42:51;;;;;;;4.83;4.43;;;;;;;13.11;73.97;98917.34;4971045;28;42271;-79
2023/05/14 04:45:19;;;;;;;3.80;3.50;;;;;;;13.03;73.95;98901.09;4954257;28;38845;-79
2023/05/14 04:47:47;;;;;;;5.13;4.27;;;;;;;13.23;74.15;98911.16;4954431;28;41507;-79
2023/05/14 04:50:16;;;;;;;4.47;4.07;;;;;;;13.34;73.58;98918.41;4940327;28;41744;-79
2023/05/14 04:52:44;;;;;;;4.40;4.07;;;;;;;13.41;73.57;98918.78;4941462;28;42320;-79
2023/05/14 04:55:12;;;;;;;4.10;3.70;;;;;;;13.51;73.31;98911.81;4957704;28;40152;-79
2023/05/14 04:57:39;;;;;;;4.50;4.10;;;;;;;13.46;73.25;98895.38;4941152;28;41811;-79
2023/05/14 05:00:08;;;;;;;4.00;3.70;;;;;;;13.59;73.25;98917.44;4957082;28;42827;-79
2023/05/14 05:02:36;;;;;;;4.70;4.30;;;;;;;13.62;73.65;98918.06;4957176;28;42209;-78
2023/05/14 05:05:05;;;;;;;4.20;3.90;;;;;;;13.68;73.07;98932.72;4957326;28;39971;-79
2023/05/14 05:07:34;;;;;;;4.67;4.27;;;;;;;13.72;73.36;98914.72;4941339;28;40679;-79
2023/05/14 05:10:01;;;;;;;5.30;4.80;;;;;;;13.73;73.22;98925.22;4956828;28;41892;-78
2023/05/14 05:12:31;;;;;;;4.67;4.27;;;;;;;13.79;72.80;98923.94;4941587;28;41280;-78
2023/05/14 05:14:58;;;;;;;4.73;4.33;;;;;;;13.79;72.90;98916.81;4942141;28;39783;-79
2023/05/14 05:17:26;;;;;;;5.40;4.90;;;;;;;13.87;72.96;98917.06;4958250;28;41774;-78
2023/05/14 05:19:54;;;;;;;4.80;4.40;;;;;;;13.96;72.67;98921.72;4958043;28;42938;-77
2023/05/14 05:22:21;;;;;;;4.70;4.30;;;;;;;14.05;72.44;98930.84;4957886;28;42225;-79
2023/05/14 05:24:50;;;;;;;4.37;4.07;;;;;;;14.10;72.38;98923.31;4973991;28;41133;-80
2023/05/14 05:27:19;;;;;;;4.90;4.50;;;;;;;14.14;71.62;98934.59;4941978;28;40971;-79
2023/05/14 05:29:47;;;;;;;4.50;4.17;;;;;;;14.18;71.47;98928.94;4941639;28;41661;-78
2023/05/14 05:32:15;;;;;;;5.43;4.27;;;;;;;14.27;71.59;98932.72;4958081;28;42502;-78
2023/05/14 05:34:43;;;;;;;4.93;4.53;;;;;;;14.35;71.33;98931.16;4941650;28;38917;-79
2023/05/14 05:37:12;;;;;;;4.60;4.20;;;;;;;14.28;70.95;98916.59;4956226;28;41181;-79
2023/05/14 05:39:40;;;;;;;4.73;4.33;;;;;;;14.28;70.84;98905.09;4956465;28;41780;-78
2023/05/14 05:42:10;;;;;;;4.50;4.10;;;;;;;14.50;70.80;98936.28;4974244;28;42301;-79
2023/05/14 05:44:37;;;;;;;4.70;4.30;;;;;;;14.47;70.57;98916.06;4940532;28;40392;-77
2023/05/14 05:47:05;;;;;;;4.70;4.30;;;;;;;14.62;70.05;98930.88;4940508;28;40464;-79
2023/05/14 05:49:33;;;;;;;4.33;4.00;;;;;;;14.71;69.88;98930.13;4956725;28;43740;-79
2023/05/14 05:52:01;;;;;;;5.30;4.90;;;;;;;14.74;70.09;98921.91;4940834;28;42330;-79
2023/05/14 05:54:32;;;;;;;5.97;4.83;;;;;;;14.85;69.90;98926.38;4957012;28;38927;-78
2023/05/14 05:57:00;;;;;;;4.57;4.03;;;;;;;14.87;69.67;98934.28;4953929;28;41797;-77
2023/05/14 05:59:29;;;;;;;4.87;4.47;;;;;;;14.93;69.70;98928.47;4939870;28;42536;-77
2023/05/14 06:01:57;;;;;;;4.50;4.10;;;;;;;14.99;69.15;98935.97;4939594;28;41062;-77
2023/05/14 06:04:25;;;;;;;4.17;3.87;;;;;;;15.10;68.59;98930.63;4956142;28;38975;-78
2023/05/14 06:06:52;;;;;;;5.23;4.00;;;;;;;15.25;68.48;98929.41;4956321;28;41780;-78
2023/05/14 06:09:20;;;;;;;4.80;4.40;;;;;;;15.37;68.13;98927.56;4956166;28;43813;-80
2023/05/14 06:11:48;;;;;;;4.07;3.70;;;;;;;15.38;67.74;98924.78;4939938;28;41617;-78
2023/05/14 06:14:15;;;;;;;4.53;4.13;;;;;;;15.53;67.07;98936.03;4956779;28;39785;-77
2023/05/14 06:16:45;;;;;;;4.73;4.33;;;;;;;15.66;66.49;98938.59;4940918;28;42080;-77
2023/05/14 06:19:12;;;;;;;4.30;3.90;;;;;;;15.71;65.56;98937.22;4956787;28;42655;-79
2023/05/14 06:21:40;;;;;;;4.20;3.90;;;;;;;15.86;65.02;98939.59;4957030;28;40986;-79
2023/05/14 06:24:08;;;;;;;5.07;4.60;;;;;;;16.04;64.00;98949.63;4940867;28;39526;-78
2023/05/14 06:26:36;;;;;;;4.03;3.73;;;;;;;16.28;64.00;98948.53;4940793;28;40878;-79
2023/05/14 06:29:03;;;;;;;4.73;4.33;;;;;;;16.42;63.58;98953.56;4956504;28;42812;-78
2023/05/14 06:31:31;;;;;;;4.50;4.10;;;;;;;16.59;63.70;98934.25;4955813;28;41912;-81
2023/05/14 06:34:00;;;;;;;4.20;3.80;;;;;;;16.91;64.05;98942.22;4955672;28;39720;-79
2023/05/14 06:36:28;;;;;;;4.27;3.87;;;;;;;17.05;62.82;98951.72;4973108;28;41503;-80
2023/05/14 06:38:56;;;;;;;4.67;4.27;;;;;;;17.17;61.82;98945.28;4973154;28;43206;-80
2023/05/14 06:41:25;;;;;;;4.07;3.70;;;;;;;17.45;61.25;98931.13;4939352;28;42622;-79
2023/05/14 06:43:52;;;;;;;3.80;3.50;;;;;;;17.99;60.77;98939.69;4955356;28;38873;-80
2023/05/14 06:46:20;;;;;;;4.07;3.77;;;;;;;18.14;59.07;98951.69;4973241;28;42060;-79
2023/05/14 06:48:47;;;;;;;3.97;3.50;;;;;;;18.24;57.65;98956.06;4939069;28;41627;-80
2023/05/14 06:51:17;;;;;;;4.57;4.17;;;;;;;18.52;56.83;98956.19;4955957;28;42432;-78
2023/05/14 06:53:45;;;;;;;4.17;3.77;;;;;;;19.07;57.70;98948.28;4955443;28;39195;-79
2023/05/14 06:56:13;;;;;;;5.20;4.03;;;;;;;19.47;55.99;98940.75;4955824;28;41837;-79
2023/05/14 06:58:41;;;;;;;6.40;3.70;;;;;;;19.90;55.19;98955.38;4954845;28;41669;-80
2023/05/14 07:01:08;;;;;;;4.13;3.83;;;;;;;20.46;54.71;98951.53;4952478;28;43072;-80
2023/05/14 07:03:36;;;;;;;4.50;4.10;;;;;;;20.41;51.14;98958.22;4972592;28;40791;-81
2023/05/14 07:06:05;;;;;;;3.87;3.57;;;;;;;20.36;50.90;98974.00;4955835;28;41998;-80
2023/05/14 07:08:34;;;;;;;4.67;4.27;;;;;;;20.33;50.91;98973.41;4972348;28;43801;-80
2023/05/14 07:11:02;;;;;;;4.50;4.10;;;;;;;20.31;50.98;98981.63;4955297;28;42315;-79
2023/05/14 07:13:30;;;;;;;4.43;4.03;;;;;;;20.24;51.07;98958.22;4939762;28;39281;-80
2023/05/14 07:15:57;;;;;;;4.63;4.23;;;;;;;20.76;51.98;98953.78;4940526;28;40467;-81
2023/05/14 07:18:25;;;;;;;4.60;4.20;;;;;;;21.57;48.97;98986.56;4939995;28;41751;-80
2023/05/14 07:20:53;;;;;;;4.67;4.10;;;;;;;21.92;49.57;98973.88;4956093;28;42207;-79
2023/05/14 07:23:21;;;;;;;4.73;4.13;;;;;;;22.06;47.83;98975.97;4956597;28;40735;-78
2023/05/14 07:25:50;;;;;;;4.97;4.20;;;;;;;21.92;47.07;98984.66;4955925;28;41744;-79
2023/05/14 07:28:17;;;;;;;4.10;3.80;;;;;;;21.81;46.96;98966.94;4955949;28;42096;-79
2023/05/14 07:30:45;;;;;;;4.20;3.73;;;;;;;21.52;47.54;98925.06;4955978;28;42412;-79
2023/05/14 07:33:12;;;;;;;4.20;3.80;;;;;;;21.81;49.40;98946.22;4956075;28;38787;-78
2023/05/14 07:35:40;;;;;;;5.17;4.67;;;;;;;21.75;47.60;98957.66;4954834;28;40408;-80
2023/05/14 07:38:08;;;;;;;4.53;4.13;;;;;;;21.59;46.61;98946.81;4972073;28;43776;-79
2023/05/14 07:40:36;;;;;;;4.10;3.80;;;;;;;21.64;47.38;98949.84;4938915;28;41226;-81
2023/05/14 07:43:05;;;;;;;4.53;4.17;;;;;;;21.57;47.83;98948.84;4939525;28;38826;-80
2023/05/14 07:45:33;;;;;;;3.90;3.60;;;;;;;21.54;47.96;98951.84;4954844;28;40839;-82
2023/05/14 07:48:00;;;;;;;4.90;4.50;;;;;;;22.02;45.62;98969.19;4955261;28;42569;-81
2023/05/14 07:50:28;;;;;;;5.33;4.83;;;;;;;22.06;45.27;98927.41;4954312;28;41574;-81
2023/05/14 07:52:56;;;;;;;4.30;3.90;;;;;;;22.25;44.65;98970.25;4972388;28;40974;-80
2023/05/14 07:55:23;;;;;;;4.47;4.07;;;;;;;22.30;45.43;98959.78;4972527;28;41553;-81
2023/05/14 07:57:51;;;;;;;4.43;4.03;;;;;;;22.96;46.46;98950.69;4938930;28;43119;-81
2023/05/14 08:00:21;;;;;;;4.83;4.40;;;;;;;23.12;45.28;98937.09;4954364;28;42339;-80
2023/05/14 08:02:49;;;;;;;4.37;3.80;;;;;;;22.75;43.94;98947.66;4939051;28;38882;-80
2023/05/14 08:05:16;;;;;;;4.40;4.00;;;;;;;22.40;44.73;98952.38;4954650;28;41760;-80
2023/05/14 08:07:44;;;;;;;3.97;3.67;;;;;;;22.30;45.98;98951.69;4972168;28;42738;-80
2023/05/14 08:10:12;;;;;;;3.80;3.50;;;;;;;22.24;47.18;98941.59;4938479;28;41905;-80
2023/05/14 08:12:41;;;;;;;5.80;4.17;;;;;;;22.23;47.10;98915.63;4939155;28;38871;-80
2023/05/14 08:15:10;;;;;;;3.87;3.53;;;;;;;22.92;45.59;98941.22;4955539;28;42175;-81
2023/05/14 08:17:39;;;;;;;5.13;4.27;;;;;;;23.17;45.42;98942.84;4955869;28;43788;-81
2023/05/14 08:20:10;;;;;;;4.87;4.37;;;;;;;23.25;45.15;98944.66;4939484;28;41042;-81
2023/05/14 08:22:38;;;;;;;4.67;4.23;;;;;;;23.41;43.38;98963.53;4955842;28;39900;-82
2023/05/14 08:25:06;;;;;;;4.53;4.10;;;;;;;23.38;44.46;98946.81;4958025;28;42517;-82
2023/05/14 08:27:34;;;;;;;4.23;3.93;;;;;;;23.21;45.01;98940.66;4943213;28;42052;-81
2023/05/14 08:30:02;;;;;;;4.57;4.17;;;;;;;23.06;44.12;98953.19;4942737;28;41437;-82
2023/05/14 08:32:29;;;;;;;4.70;4.30;;;;;;;22.89;44.22;98955.06;4959366;28;40096;-83
2023/05/14 08:34:59;;;;;;;4.40;4.10;;;;;;;22.84;45.46;98933.16;4942920;28;42315;-81
2023/05/14 08:37:26;;;;;;;4.77;4.37;;;;;;;22.90;44.21;98943.25;4959041;28;42774;-82
2023/05/14 08:39:55;;;;;;;3.80;3.50;;;;;;;22.78;44.30;98933.81;4942696;28;42381;-80
2023/05/14 08:42:25;;;;;;;4.23;3.83;;;;;;;22.88;44.51;98932.63;4942959;28;39700;-81
2023/05/14 08:45:01;;;;;;;4.47;4.07;;;;;;;22.88;43.76;98951.50;4942631;28;41177;-81
2023/05/14 08:47:30;;;;;;;4.00;3.70;;;;;;;22.77;44.12;98938.38;4942052;28;41793;-81
2023/05/14 08:50:03;;;;;;;4.70;4.30;;;;;;;22.46;44.56;98916.63;4956319;28;41392;-81
2023/05/14 08:56:46;;;;;;;4.37;3.97;;;;;;;22.50;46.42;98909.84;4972022;28;42394;-82
2023/05/14 08:59:14;;;;;;;4.97;4.57;;;;;;;22.51;45.63;98926.91;4974282;28;44075;-81
2023/05/14 09:01:55;;;;;;;3.87;3.57;;;;;;;22.29;46.57;98912.25;4974668;28;42047;-83
2023/05/14 09:04:24;;;;;;;3.90;3.50;;;;;;;22.03;47.02;98898.06;4957381;28;39790;-80
2023/05/14 09:06:55;;;;;;;4.83;4.40;;;;;;;22.01;46.61;98914.41;4940795;28;41855;-82
2023/05/14 09:09:23;;;;;;;4.20;3.90;;;;;;;21.79;46.73;98893.47;4957100;28;42184;-82
2023/05/14 09:11:52;;;;;;;4.40;4.00;;;;;;;21.93;47.41;98889.25;4957075;28;42128;-81
2023/05/14 09:14:19;;;;;;;4.30;4.00;;;;;;;22.22;48.87;98889.66;4975269;28;40656;-82
2023/05/14 09:16:49;;;;;;;4.27;3.97;;;;;;;22.46;45.83;98913.94;4975128;28;42172;-80
2023/05/14 09:19:18;;;;;;;4.30;3.90;;;;;;;22.75;47.01;98907.16;4974451;28;42431;-80
2023/05/14 09:21:47;;;;;;;4.40;4.03;;;;;;;22.98;45.78;98915.41;4957624;28;42470;-79
2023/05/14 09:24:21;;;;;;;5.00;4.57;;;;;;;23.12;44.25;98926.31;4957625;28;38716;-79
2023/05/14 09:26:50;;;;;;;4.67;4.17;;;;;;;23.20;44.41;98917.34;4957372;28;42121;-79
2023/05/14 09:29:18;;;;;;;4.20;3.83;;;;;;;23.18;42.68;98930.19;4940971;28;42266;-79
2023/05/14 09:31:46;;;;;;;4.40;4.00;;;;;;;22.97;42.29;98911.84;4941256;28;42399;-79
2023/05/14 09:34:24;;;;;;;4.07;3.67;;;;;;;23.03;42.86;98930.06;4941205;28;39990;-79
2023/05/14 09:36:55;;;;;;;4.23;3.93;;;;;;;22.98;43.01;98935.16;4956302;28;40929;-78
2023/05/14 09:39:25;;;;;;;4.33;3.93;;;;;;;22.99;42.80;98934.13;4957249;28;41927;-79
2023/05/14 09:41:53;;;;;;;3.97;3.67;;;;;;;22.82;42.57;98911.72;4956804;28;42429;-80
2023/05/14 09:44:21;;;;;;;3.50;3.13;;;;;;;22.94;43.15;98933.78;4939725;28;38982;-79
2023/05/14 09:46:50;;;;;;;4.43;3.37;;;;;;;22.98;42.80;98937.84;4973908;28;42010;-80
2023/05/14 09:49:18;;;;;;;3.67;3.37;;;;;;;22.90;43.40;98911.69;4940102;28;41381;-79
2023/05/14 09:51:46;;;;;;;3.63;3.33;;;;;;;23.03;44.09;98926.50;4940185;28;41444;-79
2023/05/14 09:54:14;;;;;;;3.87;3.57;;;;;;;22.95;42.72;98934.63;4956154;28;38919;-80
2023/05/14 09:56:44;;;;;;;4.27;3.93;;;;;;;22.80;42.87;98929.94;4940198;28;40806;-79
2023/05/14 09:59:11;;;;;;;3.57;3.27;;;;;;;22.79;44.14;98924.72;4955477;28;43887;-81
2023/05/14 10:01:42;;;;;;;4.33;3.57;;;;;;;22.67;42.58;98932.28;4940345;28;41266;-79
2023/05/14 10:04:11;;;;;;;3.97;3.67;;;;;;;22.47;42.90;98912.91;4940356;28;39270;-80
2023/05/14 10:06:40;;;;;;;4.10;3.80;;;;;;;22.57;43.52;98923.53;4956006;28;41947;-79
2023/05/14 10:09:13;;;;;;;4.20;3.80;;;;;;;22.64;43.72;98920.97;4955673;28;41612;-80
2023/05/14 10:11:45;;;;;;;3.73;3.43;;;;;;;22.76;45.02;98909.69;4970269;28;43194;-80
2023/05/14 10:14:18;;;;;;;4.20;3.80;;;;;;;22.83;43.55;98916.09;4940447;28;39058;-79
2023/05/14 10:16:48;;;;;;;3.87;3.57;;;;;;;22.87;42.40;98924.72;4941167;28;41154;-80
2023/05/14 10:19:18;;;;;;;3.90;3.60;;;;;;;22.89;43.19;98915.41;4956281;28;41915;-79
2023/05/14 10:21:49;;;;;;;3.73;3.43;;;;;;;23.04;43.04;98915.53;4973786;28;43265;-79
2023/05/14 10:24:18;;;;;;;4.30;2.90;;;;;;;23.23;42.82;98915.13;4940461;28;39794;-79
2023/05/14 10:26:47;;;;;;;3.97;3.67;;;;;;;23.33;42.11;98916.78;4956609;28;41721;-80
2023/05/14 10:29:15;;;;;;;4.00;3.70;;;;;;;23.49;41.88;98916.72;4940485;28;43130;-81
2023/05/14 10:31:47;;;;;;;4.33;3.83;;;;;;;23.67;41.04;98919.19;4956429;28;42046;-79
2023/05/14 10:34:37;;;;;;;3.90;3.60;;;;;;;23.76;41.22;98920.81;4939833;28;39050;-80
2023/05/14 10:37:06;;;;;;;3.40;3.10;;;;;;;23.88;41.29;98917.50;4970084;28;41779;-79
2023/05/14 10:39:53;;;;;;;4.10;3.47;;;;;;;24.02;41.54;98912.34;4972793;28;42779;-80
2023/05/14 10:42:24;;;;;;;3.67;3.30;;;;;;;24.00;41.35;98910.66;4939541;28;41263;-80
2023/05/14 10:44:54;;;;;;;5.00;4.20;;;;;;;23.77;40.33;98933.31;4971461;28;39869;-81
2023/05/14 10:47:22;;;;;;;3.50;3.20;;;;;;;23.73;40.81;98902.25;4954791;28;40759;-80
2023/05/14 10:49:53;;;;;;;3.63;3.33;;;;;;;23.86;41.12;98919.56;4955321;28;43907;-80
2023/05/14 10:52:21;;;;;;;3.90;3.50;;;;;;;23.94;40.55;98900.59;4952655;28;42584;-80
2023/05/14 10:54:51;;;;;;;3.93;3.53;;;;;;;24.10;39.61;98920.44;4955367;28;40011;-79
2023/05/14 10:57:19;;;;;;;4.50;3.87;;;;;;;24.37;39.83;98906.34;4955512;28;42058;-80
2023/05/14 10:59:52;;;;;;;3.63;3.17;;;;;;;24.58;39.98;98898.41;4954759;28;41993;-81
2023/05/14 11:02:21;;;;;;;3.87;3.47;;;;;;;24.97;40.43;98902.78;4955406;28;41194;-81
2023/05/14 11:04:57;;;;;;;3.93;3.63;;;;;;;25.22;39.53;98904.13;4938952;28;40427;-80
2023/05/14 11:07:28;;;;;;;4.00;3.67;;;;;;;25.23;38.13;98913.97;4969864;28;41832;-81
2023/05/14 11:10:08;;;;;;;3.87;3.57;;;;;;;25.23;38.61;98900.41;4954259;28;43054;-80
2023/05/14 11:12:37;;;;;;;3.40;3.10;;;;;;;25.48;38.15;98905.50;4954990;28;42089;-80
2023/05/14 11:15:09;;;;;;;4.63;4.23;;;;;;;25.47;37.61;98882.16;4955987;28;42094;-80
2023/05/14 11:17:38;;;;;;;4.10;3.80;;;;;;;25.60;36.72;98901.28;4956225;28;40968;-81
2023/05/14 11:20:07;;;;;;;4.10;3.70;;;;;;;25.85;36.54;98913.50;4940029;28;41677;-80
2023/05/14 11:22:35;;;;;;;3.33;3.10;;;;;;;26.04;36.15;98899.31;4956178;28;42140;-81
2023/05/14 11:25:03;;;;;;;4.27;3.93;;;;;;;26.50;35.93;98917.94;4939733;28;39799;-80
2023/05/14 11:27:34;;;;;;;3.93;3.63;;;;;;;27.18;36.94;98895.47;4956139;28;41560;-80
2023/05/14 11:30:02;;;;;;;4.07;3.33;;;;;;;27.56;35.24;98907.81;4973301;28;42398;-81
2023/05/14 11:32:33;;;;;;;4.03;3.73;;;;;;;27.91;33.73;98912.09;4956025;28;42519;-80
2023/05/14 11:35:01;;;;;;;3.30;3.00;;;;;;;28.00;34.40;98902.69;4939577;28;40411;-80
2023/05/14 11:37:30;;;;;;;3.87;3.50;;;;;;;28.38;34.41;98905.72;4955904;28;42180;-81
2023/05/14 11:40:00;;;;;;;3.47;3.17;;;;;;;28.42;32.72;98911.59;4955466;28;44266;-80
2023/05/14 11:42:28;;;;;;;3.80;3.50;;;;;;;28.26;33.45;98901.09;4956030;28;42560;-81
2023/05/14 11:44:56;;;;;;;3.90;3.60;;;;;;;28.64;33.99;98891.25;4955795;28;40096;-80
2023/05/14 11:47:23;;;;;;;3.70;3.40;;;;;;;29.22;32.55;98897.66;4955798;28;41847;-80
2023/05/14 11:49:53;;;;;;;3.73;3.43;;;;;;;29.80;32.63;98905.00;4938129;28;43744;-80
2023/05/14 11:52:21;;;;;;;3.60;3.30;;;;;;;29.73;30.85;98917.88;4938145;28;42614;-80
2023/05/14 11:54:49;;;;;;;3.70;3.40;;;;;;;29.25;31.59;98896.41;4954558;28;40058;-80